Time;durP1;ratioP1;P1;durP2;ratioP2;P2;SDS_P1;SDS_P2;PMS_P1;PMS_P2;Temp;Humidity;BMP_temperature;BMP_pressure;BME280_temperature;BME280_humidity;BME280_pressure;Samples;Min_cycle;Max_cycle;Signal;HPM_P1;HPM_P2
2022/05/15 00:01:19;;;;;;;18.30;7.80;;;;;;;9.14;84.22;102281.41;5009991;28;20187;-72
2022/05/15 00:03:45;;;;;;;17.23;7.27;;;;;;;9.13;83.98;102275.41;5010709;28;20215;-72
2022/05/15 00:06:10;;;;;;;14.03;7.83;;;;;;;9.10;83.75;102274.38;5010304;28;20218;-72
2022/05/15 00:08:38;;;;;;;18.57;7.50;;;;;;;9.06;84.15;102273.38;5009060;28;20273;-72
2022/05/15 00:11:05;;;;;;;17.80;9.40;;;;;;;9.02;85.02;102273.13;5010294;28;20220;-72
2022/05/15 00:13:31;;;;;;;20.07;8.90;;;;;;;8.96;84.35;102272.84;5011041;28;20199;-72
2022/05/15 00:15:57;;;;;;;15.43;7.90;;;;;;;8.92;82.94;102278.59;5013129;28;20731;-72
2022/05/15 00:18:24;;;;;;;18.67;7.87;;;;;;;8.87;83.32;102280.06;5027451;28;20194;-72
2022/05/15 00:20:50;;;;;;;17.80;8.27;;;;;;;8.77;83.82;102276.19;5008915;28;20202;-72
2022/05/15 00:23:17;;;;;;;19.00;8.33;;;;;;;8.79;84.34;102282.25;5009438;28;20191;-72
2022/05/15 00:25:43;;;;;;;21.17;9.30;;;;;;;8.76;86.05;102287.19;5009011;28;20349;-72
2022/05/15 00:28:09;;;;;;;19.27;9.73;;;;;;;8.76;85.25;102287.19;5008290;28;20211;-72
2022/05/15 00:30:36;;;;;;;19.30;9.43;;;;;;;8.77;86.80;102286.41;5013567;28;20566;-72
2022/05/15 00:33:01;;;;;;;24.43;10.17;;;;;;;8.75;86.37;102282.88;5024063;28;20226;-72
2022/05/15 00:35:27;;;;;;;18.30;9.33;;;;;;;8.71;86.81;102292.88;4991396;28;20238;-72
2022/05/15 00:37:53;;;;;;;16.37;7.80;;;;;;;8.63;86.32;102286.53;5016434;28;20186;-72
2022/05/15 00:40:20;;;;;;;18.50;8.17;;;;;;;8.59;85.70;102284.59;5034347;28;20178;-72
2022/05/15 00:42:47;;;;;;;21.03;8.77;;;;;;;8.60;84.87;102286.34;5029624;28;20690;-72
2022/05/15 00:45:14;;;;;;;18.63;8.70;;;;;;;8.45;85.44;102281.38;5029143;28;20214;-72
2022/05/15 00:47:40;;;;;;;19.23;7.93;;;;;;;8.47;86.56;102272.09;5028572;28;20210;-72
2022/05/15 00:50:10;;;;;;;16.47;8.17;;;;;;;8.39;86.13;102281.03;5027808;28;20186;-72
2022/05/15 00:52:41;;;;;;;17.73;9.00;;;;;;;8.30;86.47;102278.00;5028051;28;20195;-72
2022/05/15 00:55:16;;;;;;;19.47;9.00;;;;;;;8.34;87.10;102277.38;5028193;28;20360;-72
2022/05/15 00:57:47;;;;;;;18.17;8.50;;;;;;;8.30;86.52;102280.56;5029041;28;20308;-72
2022/05/15 01:00:18;;;;;;;21.00;7.87;;;;;;;8.35;85.10;102285.91;5027972;28;20730;-72
2022/05/15 01:02:53;;;;;;;16.83;7.97;;;;;;;8.23;84.90;102287.81;5027694;28;20194;-72
2022/05/15 01:05:19;;;;;;;16.67;7.90;;;;;;;8.15;85.06;102287.41;5027965;28;20217;-72
2022/05/15 01:07:45;;;;;;;15.83;7.60;;;;;;;8.06;84.99;102291.16;5011494;28;20226;-72
2022/05/15 01:10:12;;;;;;;16.50;7.97;;;;;;;8.12;85.86;102286.38;5022790;28;20603;-72
2022/05/15 01:12:43;;;;;;;16.60;8.00;;;;;;;8.07;86.27;102292.91;5027374;28;20182;-72
2022/05/15 01:15:18;;;;;;;17.97;9.27;;;;;;;8.08;86.30;102292.09;5027660;28;20206;-72
2022/05/15 01:17:43;;;;;;;15.80;8.27;;;;;;;8.13;86.72;102291.56;5027826;28;20241;-72
2022/05/15 01:20:16;;;;;;;17.73;7.43;;;;;;;8.08;85.59;102290.44;5027272;28;20194;-72
2022/05/15 01:22:41;;;;;;;16.50;7.70;;;;;;;7.95;85.34;102299.91;5012560;28;20575;-72
2022/05/15 01:25:16;;;;;;;15.60;7.90;;;;;;;7.89;84.54;102297.94;5007499;28;20207;-72
2022/05/15 01:27:47;;;;;;;14.97;7.47;;;;;;;7.78;85.76;102298.16;5008040;28;20203;-72
2022/05/15 01:30:14;;;;;;;13.00;6.93;;;;;;;7.83;86.11;102296.72;5007752;28;20190;-72
2022/05/15 01:32:39;;;;;;;17.50;7.50;;;;;;;7.77;86.73;102302.34;4991803;28;20195;-72
2022/05/15 01:35:05;;;;;;;15.63;7.23;;;;;;;7.71;86.20;102298.59;5007444;28;20238;-72
2022/05/15 01:37:30;;;;;;;18.10;8.07;;;;;;;7.66;86.37;102300.91;5013759;28;20189;-72
2022/05/15 01:39:56;;;;;;;18.17;7.90;;;;;;;7.70;86.21;102301.94;5031199;28;20190;-73
2022/05/15 01:42:21;;;;;;;17.63;7.90;;;;;;;7.70;86.49;102301.94;5028513;28;20194;-72
2022/05/15 01:44:46;;;;;;;13.73;7.40;;;;;;;7.63;86.24;102299.84;5027612;28;20206;-72
2022/05/15 01:47:12;;;;;;;16.67;8.27;;;;;;;7.62;87.18;102304.09;5029993;28;20193;-72
2022/05/15 01:49:38;;;;;;;18.33;7.97;;;;;;;7.51;87.46;102300.06;5014739;28;20264;-72
2022/05/15 01:52:04;;;;;;;17.27;8.03;;;;;;;7.52;87.04;102300.94;5031101;28;20196;-72
2022/05/15 01:54:29;;;;;;;15.77;6.87;;;;;;;7.49;87.49;102300.78;5031408;28;20218;-72
2022/05/15 01:56:54;;;;;;;15.67;7.80;;;;;;;7.52;86.21;102298.41;5030147;28;20200;-72
2022/05/15 01:59:20;;;;;;;14.03;7.47;;;;;;;7.51;86.28;102305.16;5030657;28;20186;-73
2022/05/15 02:01:46;;;;;;;16.53;8.27;;;;;;;7.40;85.65;102303.69;5031448;28;20940;-72
2022/05/15 02:04:11;;;;;;;15.63;7.60;;;;;;;7.37;86.45;102306.06;5030420;28;20218;-72
2022/05/15 02:06:38;;;;;;;12.23;6.77;;;;;;;7.32;85.55;102297.28;5030968;28;20185;-72
2022/05/15 02:09:05;;;;;;;13.90;6.87;;;;;;;7.26;85.42;102294.41;5030682;28;20214;-72
2022/05/15 02:11:31;;;;;;;12.67;7.30;;;;;;;7.24;85.64;102298.53;5031048;28;20655;-72
2022/05/15 02:13:56;;;;;;;16.37;7.53;;;;;;;7.21;86.03;102300.94;5013211;28;20230;-73
2022/05/15 02:16:22;;;;;;;15.00;6.90;;;;;;;7.13;86.14;102299.59;5011297;28;20195;-72
2022/05/15 02:18:47;;;;;;;15.40;7.50;;;;;;;7.15;86.92;102304.78;5011157;28;20618;-72
2022/05/15 02:21:13;;;;;;;14.03;7.73;;;;;;;7.22;87.62;102301.78;5010561;28;20273;-72
2022/05/15 02:23:38;;;;;;;11.03;7.50;;;;;;;7.25;87.51;102302.84;5011071;28;20277;-72
2022/05/15 02:26:04;;;;;;;14.60;8.10;;;;;;;7.27;87.17;102301.25;5015063;28;20233;-72
2022/05/15 02:28:30;;;;;;;22.57;8.57;;;;;;;7.22;87.55;102300.13;5031424;28;20205;-72
2022/05/15 02:30:55;;;;;;;20.33;9.50;;;;;;;7.22;87.37;102302.66;5037523;28;20244;-72
2022/05/15 02:33:21;;;;;;;27.27;11.03;;;;;;;7.22;87.99;102291.59;5038860;28;20210;-73
2022/05/15 02:35:46;;;;;;;27.20;11.53;;;;;;;7.21;88.76;102294.94;5044482;28;20202;-72
2022/05/15 02:38:12;;;;;;;41.33;13.13;;;;;;;7.12;89.09;102290.22;5042593;28;20592;-72
2022/05/15 02:40:38;;;;;;;50.07;14.83;;;;;;;7.16;89.95;102291.25;5021050;28;20214;-72
2022/05/15 02:43:04;;;;;;;29.57;13.00;;;;;;;7.18;90.43;102287.16;5033928;28;20225;-72
2022/05/15 02:45:29;;;;;;;33.03;13.40;;;;;;;7.15;90.81;102292.06;5035091;28;20201;-72
2022/05/15 02:47:54;;;;;;;32.43;13.80;;;;;;;7.03;91.28;102297.34;5033957;28;20210;-72
2022/05/15 02:53:05;;;;;;;30.40;13.27;;;;;;;7.05;91.35;102288.09;5040260;28;20230;-72
2022/05/15 02:55:31;;;;;;;34.03;13.30;;;;;;;7.10;90.10;102296.88;5024667;28;20285;-72
2022/05/15 02:57:57;;;;;;;27.20;12.63;;;;;;;7.07;89.44;102303.47;5031522;28;20574;-72
2022/05/15 03:00:25;;;;;;;23.83;11.67;;;;;;;7.02;89.75;102300.69;5030810;28;20678;-72
2022/05/15 03:02:51;;;;;;;24.53;12.23;;;;;;;7.07;89.62;102301.81;5028489;28;20199;-72
2022/05/15 03:05:18;;;;;;;32.97;14.83;;;;;;;7.08;90.80;102305.22;5050096;28;20210;-72
2022/05/15 03:07:43;;;;;;;30.97;14.83;;;;;;;7.04;91.04;102301.63;4997779;28;20707;-72
2022/05/15 03:10:11;;;;;;;39.10;15.30;;;;;;;7.07;90.68;102301.81;5027462;28;20292;-72
2022/05/15 03:12:37;;;;;;;31.70;14.73;;;;;;;7.04;91.38;102304.19;5039415;28;20191;-72
2022/05/15 03:15:05;;;;;;;32.90;15.47;;;;;;;7.05;91.63;102303.38;5031687;28;20684;-72
2022/05/15 03:17:32;;;;;;;36.53;16.43;;;;;;;7.07;91.79;102308.56;5035116;28;20285;-72
2022/05/15 03:19:58;;;;;;;72.03;19.27;;;;;;;6.99;92.43;102309.78;5032072;28;20194;-72
2022/05/15 03:22:23;;;;;;;60.77;19.00;;;;;;;6.98;93.29;102318.22;5036773;28;20332;-72
2022/05/15 03:24:48;;;;;;;105.93;21.73;;;;;;;7.05;92.57;102312.72;5027451;28;20210;-72
2022/05/15 03:27:14;;;;;;;49.33;21.73;;;;;;;7.05;93.87;102321.22;5029044;28;20210;-72
2022/05/15 03:29:39;;;;;;;40.23;20.93;;;;;;;6.95;93.40;102318.06;5024382;28;20210;-72
2022/05/15 03:32:05;;;;;;;34.97;18.33;;;;;;;6.81;93.52;102314.72;5037765;28;20567;-72
2022/05/15 03:34:30;;;;;;;40.60;17.00;;;;;;;7.00;93.50;102317.53;5030402;28;20211;-72
2022/05/15 03:36:56;;;;;;;34.20;17.00;;;;;;;7.02;94.48;102317.63;5014955;28;20743;-72
2022/05/15 03:39:22;;;;;;;41.90;18.20;;;;;;;7.08;94.23;102328.16;5035597;28;20572;-72
2022/05/15 03:41:49;;;;;;;34.17;17.90;;;;;;;7.02;94.72;102322.72;5045656;28;20177;-72
2022/05/15 03:44:16;;;;;;;27.00;14.77;;;;;;;7.04;94.20;102322.00;5037762;28;20358;-72
2022/05/15 03:46:43;;;;;;;29.93;14.33;;;;;;;7.08;94.55;102335.78;5044142;28;20413;-72
2022/05/15 03:49:11;;;;;;;28.10;14.97;;;;;;;7.06;94.24;102325.53;5030402;28;20207;-72
2022/05/15 03:51:37;;;;;;;17.93;12.87;;;;;;;7.04;93.85;102337.28;5032806;28;20198;-72
2022/05/15 03:54:02;;;;;;;18.17;12.27;;;;;;;7.03;93.57;102337.19;5026429;28;20267;-72
2022/05/15 03:59:12;;;;;;;15.17;11.73;;;;;;;7.01;93.40;102351.53;5031026;28;20578;-72
2022/05/15 04:01:38;;;;;;;15.00;10.87;;;;;;;7.03;93.07;102345.72;5039069;28;20196;-72
2022/05/15 04:04:04;;;;;;;12.43;9.80;;;;;;;7.04;92.48;102347.47;5018787;28;20218;-72
2022/05/15 04:06:30;;;;;;;18.93;9.93;;;;;;;7.08;93.11;102356.16;5037951;28;20183;-72
2022/05/15 04:08:55;;;;;;;25.87;9.10;;;;;;;7.09;92.67;102356.25;5029523;28;20210;-72
2022/05/15 04:11:21;;;;;;;15.70;8.60;;;;;;;7.05;93.37;102359.41;5031415;28;20190;-72
2022/05/15 04:13:46;;;;;;;35.70;9.40;;;;;;;7.05;94.52;102361.97;5028510;28;20189;-72
2022/05/15 04:16:13;;;;;;;23.33;10.23;;;;;;;7.03;94.89;102370.28;5038259;28;20185;-72
2022/05/15 04:18:39;;;;;;;21.10;10.37;;;;;;;7.07;95.23;102377.31;5031243;28;20686;-72
2022/05/15 04:21:04;;;;;;;26.50;11.43;;;;;;;7.08;96.57;102369.78;5047032;28;20880;-72
2022/05/15 04:23:30;;;;;;;47.47;12.47;;;;;;;7.20;96.63;102373.03;5043087;28;20277;-72
2022/05/15 04:25:56;;;;;;;47.30;13.27;;;;;;;7.27;97.41;102374.28;5038054;28;20228;-72
2022/05/15 04:28:22;;;;;;;51.93;14.03;;;;;;;7.30;98.39;102372.78;5042546;28;20223;-73
2022/05/15 04:30:47;;;;;;;40.93;13.40;;;;;;;7.34;98.46;102364.50;4992989;28;20222;-72
2022/05/15 04:33:13;;;;;;;28.63;13.73;;;;;;;7.49;98.07;102365.38;5009072;28;20266;-72
2022/05/15 04:35:38;;;;;;;102.17;17.20;;;;;;;7.55;98.46;102370.78;5009480;28;20211;-73
2022/05/15 04:38:03;;;;;;;52.60;17.17;;;;;;;7.67;99.11;102375.69;5009230;28;20191;-72
2022/05/15 04:40:29;;;;;;;63.20;17.17;;;;;;;7.74;99.04;102367.63;5010250;28;20187;-72
2022/05/15 04:42:54;;;;;;;36.27;16.63;;;;;;;7.86;99.69;102375.91;5010726;28;20192;-72
2022/05/15 04:45:20;;;;;;;30.93;15.73;;;;;;;7.97;100.00;102375.69;5010342;28;20264;-72
2022/05/15 04:47:46;;;;;;;44.07;16.30;;;;;;;8.00;99.74;102367.34;5010467;28;20253;-72
2022/05/15 04:50:12;;;;;;;41.37;16.20;;;;;;;8.15;100.00;102370.72;5009896;28;20249;-72
2022/05/15 04:52:38;;;;;;;34.70;16.07;;;;;;;8.23;100.00;102378.03;5009284;28;20215;-72
2022/05/15 04:55:03;;;;;;;32.13;16.90;;;;;;;8.32;99.74;102375.97;5010205;28;20249;-72
2022/05/15 04:57:28;;;;;;;51.63;16.43;;;;;;;8.40;99.45;102378.91;5008417;28;20202;-72
2022/05/15 04:59:54;;;;;;;39.67;17.97;;;;;;;8.46;100.00;102380.09;5010132;28;20187;-72
2022/05/15 05:02:19;;;;;;;49.53;17.47;;;;;;;8.51;100.00;102391.44;5010112;28;20214;-72
2022/05/15 05:04:45;;;;;;;62.07;16.87;;;;;;;8.54;100.00;102391.59;5010413;28;20199;-72
2022/05/15 05:07:10;;;;;;;63.57;18.20;;;;;;;8.61;100.00;102392.81;5009589;28;20187;-72
2022/05/15 05:09:35;;;;;;;35.87;17.83;;;;;;;8.68;100.00;102390.66;5008497;28;20250;-72
2022/05/15 05:12:01;;;;;;;26.60;16.87;;;;;;;8.82;100.00;102386.22;5009903;28;20262;-72
2022/05/15 05:14:26;;;;;;;52.47;17.87;;;;;;;8.82;100.00;102382.00;5044875;28;20297;-72
2022/05/15 05:16:51;;;;;;;25.37;16.67;;;;;;;8.94;100.00;102391.97;5049732;28;20225;-72
2022/05/15 05:19:17;;;;;;;53.73;17.23;;;;;;;8.92;100.00;102386.78;5041851;28;20187;-72
2022/05/15 05:21:42;;;;;;;28.70;16.37;;;;;;;9.05;100.00;102388.28;5009917;28;20202;-72
2022/05/15 05:24:08;;;;;;;20.80;16.57;;;;;;;9.24;100.00;102390.94;5008173;28;20210;-72
2022/05/15 05:26:34;;;;;;;21.23;15.77;;;;;;;9.37;100.00;102393.28;5009930;28;20194;-72
2022/05/15 05:29:00;;;;;;;31.73;16.37;;;;;;;9.41;100.00;102392.66;5009457;28;20242;-72
2022/05/15 05:31:25;;;;;;;39.83;16.33;;;;;;;9.52;100.00;102394.91;5009492;28;20660;-72
2022/05/15 05:33:51;;;;;;;27.00;14.47;;;;;;;9.65;100.00;102399.81;5009753;28;20278;-72
2022/05/15 05:36:17;;;;;;;21.53;16.17;;;;;;;9.80;100.00;102405.66;5011793;28;20612;-72
2022/05/15 05:38:42;;;;;;;21.33;15.40;;;;;;;9.91;100.00;102394.25;5029523;28;20189;-72
2022/05/15 05:41:08;;;;;;;22.60;15.73;;;;;;;10.07;100.00;102393.31;5026715;28;20225;-72
2022/05/15 05:43:33;;;;;;;23.67;16.03;;;;;;;10.08;100.00;102397.63;5029190;28;20186;-72
2022/05/15 05:45:59;;;;;;;21.40;15.23;;;;;;;10.20;100.00;102400.75;5028526;28;20240;-72
2022/05/15 05:48:24;;;;;;;22.17;14.97;;;;;;;10.29;99.11;102399.50;5029308;28;20222;-72
2022/05/15 05:50:50;;;;;;;21.23;14.80;;;;;;;10.47;99.08;102399.44;5027891;28;20285;-72
2022/05/15 05:53:15;;;;;;;20.80;14.90;;;;;;;10.57;97.94;102399.91;5025653;28;20191;-72
2022/05/15 05:55:40;;;;;;;20.40;13.90;;;;;;;10.79;97.91;102402.59;5008303;28;20641;-72
2022/05/15 05:58:05;;;;;;;18.13;13.53;;;;;;;10.91;96.47;102402.25;5009127;28;20640;-72
2022/05/15 06:00:35;;;;;;;19.93;13.60;;;;;;;11.11;96.00;102406.53;5009234;28;20987;-72
2022/05/15 06:05:46;;;;;;;21.50;12.10;;;;;;;11.49;93.65;102398.75;5009360;28;20206;-72
2022/05/15 06:08:13;;;;;;;21.87;11.53;;;;;;;11.69;92.53;102396.19;5008881;28;20315;-72
2022/05/15 06:10:39;;;;;;;18.30;11.47;;;;;;;11.97;91.54;102399.03;5009201;28;20653;-72
2022/05/15 06:13:05;;;;;;;17.23;10.13;;;;;;;12.16;90.42;102403.19;5030002;28;20229;-72
2022/05/15 06:15:32;;;;;;;16.77;9.73;;;;;;;12.16;89.25;102404.03;5045594;28;20209;-72
2022/05/15 06:17:59;;;;;;;19.10;9.70;;;;;;;12.35;87.90;102405.63;5049050;28;20311;-72
2022/05/15 06:20:24;;;;;;;16.90;8.80;;;;;;;12.56;86.72;102404.72;5048230;28;20221;-72
2022/05/15 06:22:49;;;;;;;13.90;8.70;;;;;;;12.78;86.53;102398.63;5048965;28;20268;-71
2022/05/15 06:25:15;;;;;;;16.37;8.00;;;;;;;12.95;85.55;102398.38;5048361;28;20289;-71
2022/05/15 06:27:40;;;;;;;12.67;7.50;;;;;;;13.21;84.33;102404.47;5040926;28;20306;-71
2022/05/15 06:30:07;;;;;;;15.67;7.97;;;;;;;13.38;83.22;102398.19;5028883;28;20194;-72
2022/05/15 06:32:32;;;;;;;12.33;6.40;;;;;;;13.51;81.21;102391.72;5028562;28;20187;-72
2022/05/15 06:34:58;;;;;;;13.30;6.87;;;;;;;13.58;80.71;102401.41;5032639;28;20687;-72
2022/05/15 06:37:24;;;;;;;14.00;6.83;;;;;;;13.76;79.24;102391.69;5031058;28;20201;-72
2022/05/15 06:39:49;;;;;;;12.27;6.80;;;;;;;14.04;79.85;102390.00;5032808;28;20186;-72
2022/05/15 06:42:15;;;;;;;16.00;6.53;;;;;;;14.20;78.04;102384.53;5032286;28;20189;-72
2022/05/15 06:44:42;;;;;;;9.90;5.40;;;;;;;14.33;75.40;102386.63;4990569;28;20241;-72
2022/05/15 06:47:07;;;;;;;10.87;5.07;;;;;;;14.56;74.27;102380.41;5030871;28;20572;-72
2022/05/15 06:49:33;;;;;;;9.73;4.67;;;;;;;14.66;71.50;102381.53;5032327;28;20206;-73
2022/05/15 06:51:58;;;;;;;10.63;4.47;;;;;;;14.83;68.86;102378.56;5032035;28;20610;-72
2022/05/15 06:54:24;;;;;;;11.13;4.03;;;;;;;14.82;66.89;102376.81;5029715;28;20216;-72
2022/05/15 06:59:34;;;;;;;9.80;3.80;;;;;;;15.08;67.93;102386.13;5031367;28;20703;-72
2022/05/15 07:02:00;;;;;;;6.40;3.50;;;;;;;15.22;65.84;102379.63;5022197;28;20274;-73
2022/05/15 07:04:25;;;;;;;8.43;3.13;;;;;;;15.38;64.83;102378.31;5012196;28;20297;-72
2022/05/15 07:06:51;;;;;;;9.87;3.47;;;;;;;15.48;65.18;102382.88;5011879;28;20234;-72
2022/05/15 07:09:16;;;;;;;7.33;2.70;;;;;;;15.75;64.74;102383.53;5011861;28;20234;-73
2022/05/15 07:11:41;;;;;;;6.60;3.03;;;;;;;16.00;62.43;102381.53;5011349;28;20222;-73
2022/05/15 07:14:08;;;;;;;9.07;3.40;;;;;;;16.03;61.67;102381.56;5010511;28;20214;-73
2022/05/15 07:16:34;;;;;;;6.07;3.10;;;;;;;16.08;59.82;102377.41;5011667;28;20195;-72
2022/05/15 07:18:59;;;;;;;8.77;3.00;;;;;;;16.38;60.17;102377.16;5020014;28;20194;-72
2022/05/15 07:21:24;;;;;;;3.90;2.30;;;;;;;16.49;59.37;102375.72;5031446;28;20186;-72
2022/05/15 07:23:50;;;;;;;5.53;2.87;;;;;;;16.79;59.15;102373.69;5029633;28;20179;-72
2022/05/15 07:26:15;;;;;;;7.23;3.00;;;;;;;16.95;57.64;102375.75;5031516;28;20655;-72
2022/05/15 07:28:41;;;;;;;8.40;2.60;;;;;;;17.09;55.71;102387.22;5029533;28;20226;-72
2022/05/15 07:31:06;;;;;;;3.93;1.97;;;;;;;16.61;55.85;102388.88;5031134;28;20194;-72
2022/05/15 07:33:31;;;;;;;4.67;2.00;;;;;;;17.01;55.70;102383.59;5030967;28;20179;-73
2022/05/15 07:35:57;;;;;;;6.53;2.30;;;;;;;17.18;55.32;102384.78;5025298;28;20223;-72
2022/05/15 07:38:23;;;;;;;3.43;1.90;;;;;;;17.14;55.12;102385.56;5011274;28;20198;-72
2022/05/15 07:40:49;;;;;;;3.77;1.70;;;;;;;17.38;52.02;102381.69;5010852;28;20286;-72
2022/05/15 07:43:15;;;;;;;2.60;1.13;;;;;;;17.57;49.33;102370.78;5011095;28;20195;-72
2022/05/15 07:45:40;;;;;;;2.33;1.10;;;;;;;17.67;51.51;102375.25;5009498;28;20248;-72
2022/05/15 07:48:06;;;;;;;3.23;1.30;;;;;;;18.04;49.80;102374.94;5011413;28;20219;-72
2022/05/15 07:50:33;;;;;;;3.00;1.20;;;;;;;18.19;48.96;102369.09;5010826;28;20274;-72
2022/05/15 07:52:58;;;;;;;3.30;1.20;;;;;;;18.31;48.19;102364.94;5019976;28;20187;-72
2022/05/15 07:55:24;;;;;;;3.50;1.43;;;;;;;18.22;46.96;102366.53;5031102;28;20621;-72
2022/05/15 07:57:49;;;;;;;3.37;1.30;;;;;;;18.51;47.94;102363.47;5030935;28;20190;-72
2022/05/15 08:00:16;;;;;;;3.80;1.07;;;;;;;18.81;46.68;102362.91;5029641;28;20214;-72
2022/05/15 08:02:43;;;;;;;2.87;0.87;;;;;;;18.84;47.42;102358.63;5030614;28;20225;-72
2022/05/15 08:08:01;;;;;;;3.97;0.90;;;;;;;19.22;45.81;102359.91;5030273;28;20288;-72
2022/05/15 08:10:33;;;;;;;2.50;1.30;;;;;;;19.24;44.62;102354.69;5029828;28;20562;-72
2022/05/15 08:13:00;;;;;;;2.73;1.00;;;;;;;18.95;46.17;102361.34;5026157;28;20198;-72
2022/05/15 08:15:25;;;;;;;1.83;0.97;;;;;;;19.22;45.61;102356.38;5032882;28;20206;-72
2022/05/15 08:17:50;;;;;;;2.57;1.20;;;;;;;19.13;44.10;102353.72;5030638;28;20278;-72
2022/05/15 08:25:46;;;;;;;2.30;0.90;;;;;;;19.44;43.63;102361.78;5030224;28;20218;-72
2022/05/15 08:28:12;;;;;;;1.80;1.20;;;;;;;19.67;44.53;102357.63;5011056;28;20684;-72
2022/05/15 08:30:38;;;;;;;1.60;0.90;;;;;;;19.97;42.78;102360.44;5009053;28;20191;-72
2022/05/15 08:33:04;;;;;;;3.70;1.20;;;;;;;19.89;44.07;102362.09;5010735;28;20203;-72
2022/05/15 08:35:30;;;;;;;2.67;1.33;;;;;;;19.86;42.17;102350.81;5009201;28;20971;-72
2022/05/15 08:37:57;;;;;;;2.53;1.10;;;;;;;20.17;40.75;102353.63;5009690;28;20191;-72
2022/05/15 08:40:26;;;;;;;1.30;0.90;;;;;;;19.81;41.07;102357.72;5009035;28;20313;-72
2022/05/15 08:42:56;;;;;;;3.27;0.93;;;;;;;19.94;40.58;102368.19;5010138;28;20194;-72
2022/05/15 08:45:26;;;;;;;1.50;0.80;;;;;;;20.02;41.77;102357.84;5010477;28;20218;-72
2022/05/15 08:48:01;;;;;;;2.57;1.00;;;;;;;20.26;40.60;102364.06;5027821;28;20218;-72
2022/05/15 08:50:29;;;;;;;1.70;0.80;;;;;;;20.85;41.20;102359.03;5030980;28;20874;-72
2022/05/15 08:53:02;;;;;;;2.80;1.10;;;;;;;20.94;41.40;102351.25;5029594;28;20209;-72
2022/05/15 08:55:55;;;;;;;2.23;0.97;;;;;;;21.26;39.67;102342.59;5029579;28;20199;-72
2022/05/15 08:58:47;;;;;;;1.47;0.70;;;;;;;21.31;39.67;102345.19;5029598;28;20179;-72
2022/05/15 09:01:17;;;;;;;2.53;0.90;;;;;;;21.15;39.21;102344.31;5017270;28;20202;-72
2022/05/15 09:03:43;;;;;;;2.10;0.80;;;;;;;21.48;39.74;102349.56;5009736;28;20597;-72
2022/05/15 09:06:27;;;;;;;1.43;1.00;;;;;;;21.38;38.87;102349.56;5028421;28;20285;-72
2022/05/15 09:09:18;;;;;;;1.70;0.90;;;;;;;21.65;36.94;102346.91;5029590;28;20217;-73
2022/05/15 09:12:04;;;;;;;1.40;0.83;;;;;;;21.47;37.08;102342.56;5029814;28;20187;-72
2022/05/15 09:15:01;;;;;;;1.00;0.70;;;;;;;21.79;36.87;102338.19;5029576;28;20230;-72
2022/05/15 09:17:46;;;;;;;1.57;0.60;;;;;;;22.19;38.61;102339.81;5028737;28;20206;-72
2022/05/15 09:20:19;;;;;;;2.33;1.00;;;;;;;21.13;37.00;102348.69;5027944;28;20190;-72
2022/05/15 09:22:57;;;;;;;2.50;1.03;;;;;;;21.45;36.22;102343.44;5028481;28;20197;-72
2022/05/15 09:25:24;;;;;;;2.00;0.73;;;;;;;21.38;37.11;102341.72;5029026;28;20198;-72
2022/05/15 09:28:05;;;;;;;2.17;0.87;;;;;;;21.28;37.61;102340.84;5025963;28;20191;-73
2022/05/15 09:30:45;;;;;;;2.07;1.10;;;;;;;21.78;36.81;102343.41;5045968;28;20243;-72
2022/05/15 09:33:30;;;;;;;2.17;1.03;;;;;;;21.67;35.12;102340.81;5049533;28;20191;-72
2022/05/15 09:36:19;;;;;;;1.83;0.93;;;;;;;21.81;35.33;102335.59;5009763;28;20215;-72
2022/05/15 09:38:49;;;;;;;1.97;0.70;;;;;;;21.82;35.73;102332.09;5009815;28;20329;-72
2022/05/15 09:44:26;;;;;;;2.70;1.13;;;;;;;22.45;33.35;102329.28;5009600;28;20207;-72
2022/05/15 09:46:58;;;;;;;2.47;1.30;;;;;;;21.48;34.92;102336.50;5020401;28;20273;-72
2022/05/15 09:49:27;;;;;;;3.63;1.20;;;;;;;21.70;34.63;102337.38;5028741;28;20221;-72
2022/05/15 09:51:57;;;;;;;1.70;0.90;;;;;;;22.01;35.41;102332.06;5028113;28;20178;-72
2022/05/15 09:54:34;;;;;;;1.47;0.83;;;;;;;22.41;35.22;102327.53;5028607;28;20754;-71
2022/05/15 09:57:23;;;;;;;2.00;1.20;;;;;;;22.20;35.14;102336.31;5029223;28;20644;-71
2022/05/15 10:00:01;;;;;;;2.00;1.03;;;;;;;22.83;36.27;102326.44;5028799;28;20178;-72
2022/05/15 10:02:46;;;;;;;1.67;1.00;;;;;;;23.06;34.47;102325.38;5029135;28;20181;-72
2022/05/15 10:05:14;;;;;;;1.83;1.00;;;;;;;23.08;36.35;102326.25;5028765;28;20245;-72
2022/05/15 10:07:45;;;;;;;1.60;0.80;;;;;;;23.45;34.95;102325.06;5028051;28;20633;-72
2022/05/15 10:10:16;;;;;;;2.20;0.90;;;;;;;23.39;33.69;102312.03;5031380;28;20337;-72
2022/05/15 10:12:43;;;;;;;2.13;0.90;;;;;;;22.70;34.40;102309.97;5033044;28;20193;-72
2022/05/15 10:15:09;;;;;;;2.43;0.97;;;;;;;21.71;34.94;102315.63;5032626;28;20234;-72
2022/05/15 10:17:50;;;;;;;1.30;0.87;;;;;;;22.25;36.01;102305.84;5032714;28;20660;-72
2022/05/15 10:20:21;;;;;;;2.30;0.83;;;;;;;23.08;34.39;102313.19;5032812;28;20918;-72
2022/05/15 10:23:07;;;;;;;3.40;1.03;;;;;;;23.45;34.29;102311.13;5031596;28;20205;-72
2022/05/15 10:25:35;;;;;;;2.33;0.90;;;;;;;23.80;34.36;102311.63;5038281;28;20242;-71
2022/05/15 10:28:20;;;;;;;1.63;0.80;;;;;;;24.03;35.74;102309.63;5032135;28;20301;-71
2022/05/15 10:31:00;;;;;;;2.93;1.10;;;;;;;23.52;33.07;102303.19;5032776;28;20216;-71
2022/05/15 10:33:31;;;;;;;2.27;1.10;;;;;;;22.62;33.87;102308.28;5032516;28;20266;-71
2022/05/15 10:36:05;;;;;;;1.93;1.00;;;;;;;23.35;33.52;102296.41;5032582;28;20215;-71
2022/05/15 10:39:09;;;;;;;2.03;0.97;;;;;;;23.71;33.42;102299.50;5031983;28;20194;-71
2022/05/15 10:41:50;;;;;;;1.97;0.80;;;;;;;23.78;32.86;102289.81;5031057;28;20210;-71
2022/05/15 10:44:27;;;;;;;1.63;1.07;;;;;;;24.22;32.17;102287.56;5012551;28;20899;-71
2022/05/15 10:47:03;;;;;;;1.40;1.07;;;;;;;23.83;32.75;102291.50;5029208;28;20221;-72
2022/05/15 10:49:47;;;;;;;1.73;0.93;;;;;;;24.02;34.54;102279.97;5032975;28;20579;-72
2022/05/15 10:52:26;;;;;;;2.47;1.20;;;;;;;24.24;31.95;102278.81;5030802;28;20269;-72
2022/05/15 10:58:50;;;;;;;1.73;0.90;;;;;;;24.46;32.14;102272.38;5031167;28;20609;-72
2022/05/15 11:01:44;;;;;;;1.42;1.02;;;;;;;24.90;32.79;102261.19;5012399;28;20289;-72
2022/05/15 11:04:48;;;;;;;1.90;1.02;;;;;;;24.11;32.26;102273.72;5021639;28;20342;-72
2022/05/15 11:07:42;;;;;;;2.97;0.90;;;;;;;23.83;32.07;102274.94;5031966;28;20239;-72
2022/05/15 11:10:14;;;;;;;2.37;0.97;;;;;;;24.54;32.31;102256.53;5028566;28;20648;-72
2022/05/15 11:13:09;;;;;;;2.90;1.03;;;;;;;23.26;33.60;102262.50;5030560;28;20178;-72
2022/05/15 11:16:05;;;;;;;2.23;1.13;;;;;;;23.36;33.17;102267.63;5031930;28;20213;-71
2022/05/15 11:19:09;;;;;;;2.10;1.00;;;;;;;22.79;34.35;102259.41;5011355;28;20194;-71
2022/05/15 11:22:05;;;;;;;3.67;1.10;;;;;;;23.89;33.70;102256.56;5011952;28;20186;-71
2022/05/15 11:24:40;;;;;;;2.30;0.90;;;;;;;24.41;33.38;102247.97;5011912;28;20207;-71
2022/05/15 11:27:21;;;;;;;4.57;1.10;;;;;;;24.60;32.27;102241.63;5011988;28;20202;-72
2022/05/15 11:29:50;;;;;;;2.47;1.00;;;;;;;24.49;32.75;102240.88;5011288;28;20214;-72
2022/05/15 11:32:30;;;;;;;2.07;1.10;;;;;;;24.49;33.03;102243.50;5010281;28;20771;-71
2022/05/15 11:35:21;;;;;;;3.50;1.30;;;;;;;24.81;32.51;102238.63;5011566;28;20211;-72
2022/05/15 11:37:56;;;;;;;2.08;0.98;;;;;;;24.35;32.41;102239.38;5011037;28;20214;-72
2022/05/15 11:40:49;;;;;;;1.75;0.90;;;;;;;24.10;31.57;102238.84;5013994;28;20671;-72
2022/05/15 11:43:27;;;;;;;2.43;1.20;;;;;;;24.41;32.54;102239.25;5045920;28;20201;-72
2022/05/15 11:46:02;;;;;;;2.73;1.10;;;;;;;24.51;32.50;102230.38;5029343;28;20224;-72
2022/05/15 11:48:32;;;;;;;2.03;1.10;;;;;;;24.85;34.32;102235.06;5031454;28;20659;-72
2022/05/15 11:51:01;;;;;;;1.87;1.00;;;;;;;23.94;31.88;102239.91;5029716;28;20221;-72
2022/05/15 11:53:34;;;;;;;4.40;1.03;;;;;;;23.71;32.06;102244.53;5027761;28;20206;-72
2022/05/15 11:56:18;;;;;;;2.80;1.40;;;;;;;23.76;32.97;102228.81;5038562;28;20276;-72
2022/05/15 11:58:43;;;;;;;1.47;1.10;;;;;;;24.52;33.71;102230.34;5047410;28;20180;-72